sensor_id;sensor_type;location;lat;lon;timestamp;temperature;humidity
70734;DHT22;58320;48.804;9.252;2022-10-16T00:01:19;16.10;87.30
70734;DHT22;58320;48.804;9.252;2022-10-16T00:03:48;16.10;88.60
70734;DHT22;58320;48.804;9.252;2022-10-16T00:06:16;16.00;89.10
70734;DHT22;58320;48.804;9.252;2022-10-16T00:08:43;15.90;89.90
70734;DHT22;58320;48.804;9.252;2022-10-16T00:11:25;15.80;90.40
70734;DHT22;58320;48.804;9.252;2022-10-16T00:13:56;15.70;90.60
70734;DHT22;58320;48.804;9.252;2022-10-16T00:16:25;15.70;90.30
70734;DHT22;58320;48.804;9.252;2022-10-16T00:18:51;15.70;90.40
70734;DHT22;58320;48.804;9.252;2022-10-16T00:21:20;15.70;89.90
70734;DHT22;58320;48.804;9.252;2022-10-16T00:23:51;15.70;89.60
70734;DHT22;58320;48.804;9.252;2022-10-16T00:26:19;15.70;89.20
70734;DHT22;58320;48.804;9.252;2022-10-16T00:28:46;15.80;89.20
70734;DHT22;58320;48.804;9.252;2022-10-16T00:31:16;15.70;89.40
70734;DHT22;58320;48.804;9.252;2022-10-16T00:33:43;15.70;89.80
70734;DHT22;58320;48.804;9.252;2022-10-16T00:36:12;15.60;90.50
70734;DHT22;58320;48.804;9.252;2022-10-16T00:38:40;15.50;91.20
70734;DHT22;58320;48.804;9.252;2022-10-16T00:41:07;15.40;92.00
70734;DHT22;58320;48.804;9.252;2022-10-16T00:43:40;15.40;92.20
70734;DHT22;58320;48.804;9.252;2022-10-16T00:46:26;15.30;92.40
70734;DHT22;58320;48.804;9.252;2022-10-16T00:49:14;15.30;93.20
70734;DHT22;58320;48.804;9.252;2022-10-16T00:51:49;15.20;93.30
70734;DHT22;58320;48.804;9.252;2022-10-16T00:54:19;15.20;94.10
70734;DHT22;58320;48.804;9.252;2022-10-16T00:56:49;15.20;94.90
70734;DHT22;58320;48.804;9.252;2022-10-16T01:02:15;15.10;95.90
70734;DHT22;58320;48.804;9.252;2022-10-16T01:04:52;15.00;96.40
70734;DHT22;58320;48.804;9.252;2022-10-16T01:16:49;15.00;96.90
70734;DHT22;58320;48.804;9.252;2022-10-16T01:18:55;15.00;97.20
70734;DHT22;58320;48.804;9.252;2022-10-16T01:21:36;15.00;97.20
70734;DHT22;58320;48.804;9.252;2022-10-16T01:24:33;15.00;97.10
70734;DHT22;58320;48.804;9.252;2022-10-16T01:27:13;15.00;97.10
70734;DHT22;58320;48.804;9.252;2022-10-16T01:32:59;15.10;96.60
70734;DHT22;58320;48.804;9.252;2022-10-16T01:35:47;15.10;96.00
70734;DHT22;58320;48.804;9.252;2022-10-16T01:38:34;15.10;95.90
70734;DHT22;58320;48.804;9.252;2022-10-16T01:41:17;15.10;95.80
70734;DHT22;58320;48.804;9.252;2022-10-16T01:43:50;15.20;95.30
70734;DHT22;58320;48.804;9.252;2022-10-16T01:46:21;15.20;94.90
70734;DHT22;58320;48.804;9.252;2022-10-16T01:48:48;15.20;94.90
70734;DHT22;58320;48.804;9.252;2022-10-16T01:51:17;15.20;94.80
70734;DHT22;58320;48.804;9.252;2022-10-16T01:53:46;15.20;95.00
70734;DHT22;58320;48.804;9.252;2022-10-16T01:56:15;15.20;95.20
70734;DHT22;58320;48.804;9.252;2022-10-16T01:58:50;15.20;95.50
70734;DHT22;58320;48.804;9.252;2022-10-16T02:01:22;15.10;95.90
70734;DHT22;58320;48.804;9.252;2022-10-16T02:03:53;15.10;96.20
70734;DHT22;58320;48.804;9.252;2022-10-16T02:06:20;15.10;96.30
70734;DHT22;58320;48.804;9.252;2022-10-16T02:08:46;15.00;96.20
70734;DHT22;58320;48.804;9.252;2022-10-16T02:11:12;15.00;96.30
70734;DHT22;58320;48.804;9.252;2022-10-16T02:13:52;15.00;96.30
70734;DHT22;58320;48.804;9.252;2022-10-16T02:16:22;15.00;96.30
70734;DHT22;58320;48.804;9.252;2022-10-16T02:18:48;15.00;96.40
70734;DHT22;58320;48.804;9.252;2022-10-16T02:21:23;15.00;96.30
70734;DHT22;58320;48.804;9.252;2022-10-16T02:26:42;15.00;96.00
70734;DHT22;58320;48.804;9.252;2022-10-16T02:29:13;15.10;95.60
70734;DHT22;58320;48.804;9.252;2022-10-16T02:31:46;15.10;95.70
70734;DHT22;58320;48.804;9.252;2022-10-16T02:34:14;15.10;95.70
70734;DHT22;58320;48.804;9.252;2022-10-16T02:36:42;15.10;95.70
70734;DHT22;58320;48.804;9.252;2022-10-16T02:39:08;15.10;95.50
70734;DHT22;58320;48.804;9.252;2022-10-16T02:41:35;15.10;95.40
70734;DHT22;58320;48.804;9.252;2022-10-16T02:44:01;15.10;94.80
70734;DHT22;58320;48.804;9.252;2022-10-16T02:46:27;15.10;94.60
70734;DHT22;58320;48.804;9.252;2022-10-16T02:48:53;15.20;94.10
70734;DHT22;58320;48.804;9.252;2022-10-16T02:51:19;15.20;93.60
70734;DHT22;58320;48.804;9.252;2022-10-16T02:53:44;15.30;93.30
70734;DHT22;58320;48.804;9.252;2022-10-16T02:56:10;15.30;93.30
70734;DHT22;58320;48.804;9.252;2022-10-16T02:58:36;15.30;93.40
70734;DHT22;58320;48.804;9.252;2022-10-16T03:01:02;15.30;93.50
70734;DHT22;58320;48.804;9.252;2022-10-16T03:03:27;15.20;93.40
70734;DHT22;58320;48.804;9.252;2022-10-16T03:05:53;15.20;93.50
70734;DHT22;58320;48.804;9.252;2022-10-16T03:08:19;15.20;93.60
70734;DHT22;58320;48.804;9.252;2022-10-16T03:10:49;15.20;94.20
70734;DHT22;58320;48.804;9.252;2022-10-16T03:13:15;15.10;94.70
70734;DHT22;58320;48.804;9.252;2022-10-16T03:15:41;15.00;95.10
70734;DHT22;58320;48.804;9.252;2022-10-16T03:18:07;15.00;95.30
70734;DHT22;58320;48.804;9.252;2022-10-16T03:20:33;15.00;95.60
70734;DHT22;58320;48.804;9.252;2022-10-16T03:22:58;15.00;95.80
70734;DHT22;58320;48.804;9.252;2022-10-16T03:25:24;14.90;96.00
70734;DHT22;58320;48.804;9.252;2022-10-16T03:27:50;14.90;95.90
70734;DHT22;58320;48.804;9.252;2022-10-16T03:30:16;14.90;95.90
70734;DHT22;58320;48.804;9.252;2022-10-16T03:32:43;14.90;96.00
70734;DHT22;58320;48.804;9.252;2022-10-16T03:35:10;14.80;96.10
70734;DHT22;58320;48.804;9.252;2022-10-16T03:37:36;14.80;96.20
70734;DHT22;58320;48.804;9.252;2022-10-16T03:40:02;14.80;96.30
70734;DHT22;58320;48.804;9.252;2022-10-16T03:42:28;14.80;96.50
70734;DHT22;58320;48.804;9.252;2022-10-16T03:44:54;14.70;96.70
70734;DHT22;58320;48.804;9.252;2022-10-16T03:47:20;14.80;96.90
70734;DHT22;58320;48.804;9.252;2022-10-16T03:49:48;14.70;97.10
70734;DHT22;58320;48.804;9.252;2022-10-16T03:52:15;14.70;97.20
70734;DHT22;58320;48.804;9.252;2022-10-16T03:54:41;14.70;97.30
70734;DHT22;58320;48.804;9.252;2022-10-16T03:57:07;14.70;97.40
70734;DHT22;58320;48.804;9.252;2022-10-16T03:59:33;14.70;97.40
70734;DHT22;58320;48.804;9.252;2022-10-16T04:01:59;14.60;97.40
70734;DHT22;58320;48.804;9.252;2022-10-16T04:04:24;14.60;97.40
70734;DHT22;58320;48.804;9.252;2022-10-16T04:06:53;14.60;97.40
70734;DHT22;58320;48.804;9.252;2022-10-16T04:09:19;14.60;97.30
70734;DHT22;58320;48.804;9.252;2022-10-16T04:11:45;14.60;97.30
70734;DHT22;58320;48.804;9.252;2022-10-16T04:14:10;14.60;97.20
70734;DHT22;58320;48.804;9.252;2022-10-16T04:16:36;14.60;97.10
70734;DHT22;58320;48.804;9.252;2022-10-16T04:19:02;14.60;97.10
70734;DHT22;58320;48.804;9.252;2022-10-16T04:21:28;14.50;97.00
70734;DHT22;58320;48.804;9.252;2022-10-16T04:23:54;14.50;96.80
70734;DHT22;58320;48.804;9.252;2022-10-16T04:26:20;14.60;96.00
70734;DHT22;58320;48.804;9.252;2022-10-16T04:28:46;14.70;94.60
70734;DHT22;58320;48.804;9.252;2022-10-16T04:31:12;14.80;93.70
70734;DHT22;58320;48.804;9.252;2022-10-16T04:33:37;14.90;92.90
70734;DHT22;58320;48.804;9.252;2022-10-16T04:36:03;14.90;92.30
70734;DHT22;58320;48.804;9.252;2022-10-16T04:38:30;15.00;91.50
70734;DHT22;58320;48.804;9.252;2022-10-16T04:40:56;15.10;91.00
70734;DHT22;58320;48.804;9.252;2022-10-16T04:43:22;15.10;90.60
70734;DHT22;58320;48.804;9.252;2022-10-16T04:45:48;15.10;90.60
70734;DHT22;58320;48.804;9.252;2022-10-16T04:48:16;15.20;90.10
70734;DHT22;58320;48.804;9.252;2022-10-16T04:50:42;15.20;89.90
70734;DHT22;58320;48.804;9.252;2022-10-16T04:53:08;15.20;89.90
70734;DHT22;58320;48.804;9.252;2022-10-16T04:55:34;15.20;89.60
70734;DHT22;58320;48.804;9.252;2022-10-16T04:58:00;15.20;89.20
70734;DHT22;58320;48.804;9.252;2022-10-16T05:00:26;15.20;89.30
70734;DHT22;58320;48.804;9.252;2022-10-16T05:02:52;15.20;89.30
70734;DHT22;58320;48.804;9.252;2022-10-16T05:05:18;15.20;89.40
70734;DHT22;58320;48.804;9.252;2022-10-16T05:07:47;15.30;89.10
70734;DHT22;58320;48.804;9.252;2022-10-16T05:10:15;15.30;89.30
70734;DHT22;58320;48.804;9.252;2022-10-16T05:12:41;15.30;89.20
70734;DHT22;58320;48.804;9.252;2022-10-16T05:15:07;15.30;89.40
70734;DHT22;58320;48.804;9.252;2022-10-16T05:17:33;15.20;89.30
70734;DHT22;58320;48.804;9.252;2022-10-16T05:19:59;15.20;89.20
70734;DHT22;58320;48.804;9.252;2022-10-16T05:22:25;15.30;89.00
70734;DHT22;58320;48.804;9.252;2022-10-16T05:24:51;15.30;89.00
70734;DHT22;58320;48.804;9.252;2022-10-16T05:27:17;15.30;89.20
70734;DHT22;58320;48.804;9.252;2022-10-16T05:29:46;15.20;89.40
70734;DHT22;58320;48.804;9.252;2022-10-16T05:32:13;15.20;89.30
70734;DHT22;58320;48.804;9.252;2022-10-16T05:34:40;15.20;89.40
70734;DHT22;58320;48.804;9.252;2022-10-16T05:37:05;15.20;89.20
70734;DHT22;58320;48.804;9.252;2022-10-16T05:39:31;15.20;89.00
70734;DHT22;58320;48.804;9.252;2022-10-16T05:41:57;15.20;88.90
70734;DHT22;58320;48.804;9.252;2022-10-16T05:44:23;15.20;88.80
70734;DHT22;58320;48.804;9.252;2022-10-16T05:46:49;15.20;89.00
70734;DHT22;58320;48.804;9.252;2022-10-16T05:49:15;15.10;89.30
70734;DHT22;58320;48.804;9.252;2022-10-16T05:51:41;15.10;89.80
70734;DHT22;58320;48.804;9.252;2022-10-16T05:54:07;15.10;90.20
70734;DHT22;58320;48.804;9.252;2022-10-16T05:56:33;15.00;90.50
70734;DHT22;58320;48.804;9.252;2022-10-16T05:58:59;15.00;90.50
70734;DHT22;58320;48.804;9.252;2022-10-16T06:01:25;15.10;90.50
70734;DHT22;58320;48.804;9.252;2022-10-16T06:03:51;15.10;90.40
70734;DHT22;58320;48.804;9.252;2022-10-16T06:06:19;15.10;90.50
70734;DHT22;58320;48.804;9.252;2022-10-16T06:08:47;15.10;90.70
70734;DHT22;58320;48.804;9.252;2022-10-16T06:11:19;15.10;91.20
70734;DHT22;58320;48.804;9.252;2022-10-16T06:13:50;15.10;91.50
70734;DHT22;58320;48.804;9.252;2022-10-16T06:16:17;15.10;91.70
70734;DHT22;58320;48.804;9.252;2022-10-16T06:18:43;15.10;91.60
70734;DHT22;58320;48.804;9.252;2022-10-16T06:21:19;15.10;91.70
70734;DHT22;58320;48.804;9.252;2022-10-16T06:23:47;15.10;91.70
70734;DHT22;58320;48.804;9.252;2022-10-16T06:26:18;15.10;91.50
70734;DHT22;58320;48.804;9.252;2022-10-16T06:28:45;15.20;91.50
70734;DHT22;58320;48.804;9.252;2022-10-16T06:31:12;15.20;91.30
70734;DHT22;58320;48.804;9.252;2022-10-16T06:33:39;15.20;90.90
70734;DHT22;58320;48.804;9.252;2022-10-16T06:36:13;15.30;90.20
70734;DHT22;58320;48.804;9.252;2022-10-16T06:38:40;15.30;89.50
70734;DHT22;58320;48.804;9.252;2022-10-16T06:41:07;15.40;88.60
70734;DHT22;58320;48.804;9.252;2022-10-16T06:43:35;15.50;87.70
70734;DHT22;58320;48.804;9.252;2022-10-16T06:46:02;15.60;87.50
70734;DHT22;58320;48.804;9.252;2022-10-16T06:48:29;15.70;87.40
70734;DHT22;58320;48.804;9.252;2022-10-16T06:51:06;15.80;87.20
70734;DHT22;58320;48.804;9.252;2022-10-16T06:53:39;16.00;87.00
70734;DHT22;58320;48.804;9.252;2022-10-16T06:56:26;15.90;86.20
70734;DHT22;58320;48.804;9.252;2022-10-16T06:58:53;16.00;86.20
70734;DHT22;58320;48.804;9.252;2022-10-16T07:01:22;16.10;86.00
70734;DHT22;58320;48.804;9.252;2022-10-16T07:03:49;16.10;85.50
70734;DHT22;58320;48.804;9.252;2022-10-16T07:06:19;16.10;85.50
70734;DHT22;58320;48.804;9.252;2022-10-16T07:08:46;16.10;85.50
70734;DHT22;58320;48.804;9.252;2022-10-16T07:11:17;16.20;85.60
70734;DHT22;58320;48.804;9.252;2022-10-16T07:13:45;16.30;85.00
70734;DHT22;58320;48.804;9.252;2022-10-16T07:16:17;16.40;84.10
70734;DHT22;58320;48.804;9.252;2022-10-16T07:18:44;16.50;83.70
70734;DHT22;58320;48.804;9.252;2022-10-16T07:21:16;16.60;82.80
70734;DHT22;58320;48.804;9.252;2022-10-16T07:23:43;16.60;82.40
70734;DHT22;58320;48.804;9.252;2022-10-16T07:26:10;16.70;82.20
70734;DHT22;58320;48.804;9.252;2022-10-16T07:28:37;-50.00;1.00
70734;DHT22;58320;48.804;9.252;2022-10-16T07:31:06;16.60;82.10
70734;DHT22;58320;48.804;9.252;2022-10-16T07:33:36;16.60;82.50
70734;DHT22;58320;48.804;9.252;2022-10-16T07:36:02;16.70;82.70
70734;DHT22;58320;48.804;9.252;2022-10-16T07:38:28;16.70;82.50
70734;DHT22;58320;48.804;9.252;2022-10-16T07:40:58;16.60;83.00
70734;DHT22;58320;48.804;9.252;2022-10-16T07:43:29;16.60;83.20
70734;DHT22;58320;48.804;9.252;2022-10-16T07:45:55;16.60;84.20
70734;DHT22;58320;48.804;9.252;2022-10-16T07:48:22;16.60;84.00
70734;DHT22;58320;48.804;9.252;2022-10-16T07:50:49;16.50;83.50
70734;DHT22;58320;48.804;9.252;2022-10-16T07:53:15;16.60;82.80
70734;DHT22;58320;48.804;9.252;2022-10-16T07:55:41;16.70;82.30
70734;DHT22;58320;48.804;9.252;2022-10-16T07:58:07;16.70;82.50
70734;DHT22;58320;48.804;9.252;2022-10-16T08:00:35;16.80;81.60
70734;DHT22;58320;48.804;9.252;2022-10-16T08:03:02;16.90;81.80
70734;DHT22;58320;48.804;9.252;2022-10-16T08:05:29;16.90;81.00
70734;DHT22;58320;48.804;9.252;2022-10-16T08:07:55;17.00;80.50
70734;DHT22;58320;48.804;9.252;2022-10-16T08:10:23;17.10;80.40
70734;DHT22;58320;48.804;9.252;2022-10-16T08:12:51;17.20;79.00
70734;DHT22;58320;48.804;9.252;2022-10-16T08:15:18;17.30;79.40
70734;DHT22;58320;48.804;9.252;2022-10-16T08:17:45;17.40;78.70
70734;DHT22;58320;48.804;9.252;2022-10-16T08:20:19;17.50;78.10
70734;DHT22;58320;48.804;9.252;2022-10-16T08:22:45;17.60;77.30
70734;DHT22;58320;48.804;9.252;2022-10-16T08:25:11;17.70;77.40
70734;DHT22;58320;48.804;9.252;2022-10-16T08:27:37;17.70;76.80
70734;DHT22;58320;48.804;9.252;2022-10-16T08:30:03;17.80;76.30
70734;DHT22;58320;48.804;9.252;2022-10-16T08:32:29;17.90;76.70
70734;DHT22;58320;48.804;9.252;2022-10-16T08:34:54;18.10;75.20
70734;DHT22;58320;48.804;9.252;2022-10-16T08:37:20;18.40;73.50
70734;DHT22;58320;48.804;9.252;2022-10-16T08:39:46;18.50;73.30
70734;DHT22;58320;48.804;9.252;2022-10-16T08:48:05;18.90;73.30
70734;DHT22;58320;48.804;9.252;2022-10-16T08:50:38;19.00;73.80
70734;DHT22;58320;48.804;9.252;2022-10-16T08:53:06;19.00;72.30
70734;DHT22;58320;48.804;9.252;2022-10-16T08:55:49;19.00;73.00
70734;DHT22;58320;48.804;9.252;2022-10-16T08:58:26;19.00;72.20
70734;DHT22;58320;48.804;9.252;2022-10-16T09:00:56;19.10;72.00
70734;DHT22;58320;48.804;9.252;2022-10-16T09:18:24;19.30;70.10
70734;DHT22;58320;48.804;9.252;2022-10-16T09:23:51;19.30;71.00
70734;DHT22;58320;48.804;9.252;2022-10-16T09:26:18;19.40;71.70
70734;DHT22;58320;48.804;9.252;2022-10-16T09:28:47;19.50;70.60
70734;DHT22;58320;48.804;9.252;2022-10-16T09:31:18;19.50;69.20
70734;DHT22;58320;48.804;9.252;2022-10-16T09:33:52;19.50;70.50
70734;DHT22;58320;48.804;9.252;2022-10-16T09:36:20;19.60;70.40
70734;DHT22;58320;48.804;9.252;2022-10-16T09:38:47;19.60;69.20
70734;DHT22;58320;48.804;9.252;2022-10-16T09:41:20;19.50;70.80
70734;DHT22;58320;48.804;9.252;2022-10-16T09:46:35;19.70;69.70
70734;DHT22;58320;48.804;9.252;2022-10-16T09:49:02;19.70;69.70
70734;DHT22;58320;48.804;9.252;2022-10-16T09:56:35;19.60;69.30
70734;DHT22;58320;48.804;9.252;2022-10-16T09:59:11;19.80;69.30
70734;DHT22;58320;48.804;9.252;2022-10-16T10:01:43;20.30;70.30
70734;DHT22;58320;48.804;9.252;2022-10-16T10:04:11;20.80;66.60
70734;DHT22;58320;48.804;9.252;2022-10-16T10:06:44;20.80;65.90
70734;DHT22;58320;48.804;9.252;2022-10-16T10:09:21;20.80;66.50
70734;DHT22;58320;48.804;9.252;2022-10-16T10:14:35;20.90;67.40
70734;DHT22;58320;48.804;9.252;2022-10-16T10:22:25;21.00;66.90
70734;DHT22;58320;48.804;9.252;2022-10-16T10:31:14;21.50;65.10
70734;DHT22;58320;48.804;9.252;2022-10-16T10:33:50;21.70;65.10
70734;DHT22;58320;48.804;9.252;2022-10-16T10:36:40;22.10;64.60
70734;DHT22;58320;48.804;9.252;2022-10-16T10:39:16;22.20;61.70
70734;DHT22;58320;48.804;9.252;2022-10-16T10:42:27;22.30;61.50
70734;DHT22;58320;48.804;9.252;2022-10-16T10:56:19;25.00;55.10
70734;DHT22;58320;48.804;9.252;2022-10-16T11:01:59;26.90;51.20
70734;DHT22;58320;48.804;9.252;2022-10-16T11:08:00;28.90;45.50
70734;DHT22;58320;48.804;9.252;2022-10-16T11:10:38;28.90;45.60
70734;DHT22;58320;48.804;9.252;2022-10-16T11:15:48;28.60;46.20
70734;DHT22;58320;48.804;9.252;2022-10-16T11:18:40;28.60;45.10
70734;DHT22;58320;48.804;9.252;2022-10-16T11:21:23;28.50;46.40
70734;DHT22;58320;48.804;9.252;2022-10-16T11:24:01;28.50;46.20
70734;DHT22;58320;48.804;9.252;2022-10-16T11:26:34;28.20;46.40
70734;DHT22;58320;48.804;9.252;2022-10-16T11:29:03;28.30;45.20
70734;DHT22;58320;48.804;9.252;2022-10-16T11:31:57;29.30;45.10
70734;DHT22;58320;48.804;9.252;2022-10-16T11:34:39;30.40;41.90
70734;DHT22;58320;48.804;9.252;2022-10-16T11:37:16;30.70;40.20
70734;DHT22;58320;48.804;9.252;2022-10-16T11:39:44;30.30;41.50
70734;DHT22;58320;48.804;9.252;2022-10-16T11:42:24;30.40;42.20
70734;DHT22;58320;48.804;9.252;2022-10-16T11:45:23;30.80;41.10
70734;DHT22;58320;48.804;9.252;2022-10-16T11:48:02;31.30;39.90
70734;DHT22;58320;48.804;9.252;2022-10-16T11:50:38;31.80;38.90
70734;DHT22;58320;48.804;9.252;2022-10-16T11:55:43;32.80;37.40
70734;DHT22;58320;48.804;9.252;2022-10-16T12:02:07;33.10;35.50
70734;DHT22;58320;48.804;9.252;2022-10-16T12:04:31;33.10;35.70
70734;DHT22;58320;48.804;9.252;2022-10-16T12:09:34;32.60;36.40
70734;DHT22;58320;48.804;9.252;2022-10-16T12:12:02;32.20;35.90
70734;DHT22;58320;48.804;9.252;2022-10-16T12:14:38;31.60;36.80
70734;DHT22;58320;48.804;9.252;2022-10-16T12:17:22;31.50;36.50
70734;DHT22;58320;48.804;9.252;2022-10-16T12:20:12;31.70;37.00
70734;DHT22;58320;48.804;9.252;2022-10-16T12:23:03;31.90;36.00
70734;DHT22;58320;48.804;9.252;2022-10-16T12:25:37;31.90;36.90
70734;DHT22;58320;48.804;9.252;2022-10-16T12:30:41;30.90;38.90
70734;DHT22;58320;48.804;9.252;2022-10-16T12:33:29;30.40;39.10
70734;DHT22;58320;48.804;9.252;2022-10-16T12:35:59;30.20;40.20
70734;DHT22;58320;48.804;9.252;2022-10-16T12:38:29;30.70;40.40
70734;DHT22;58320;48.804;9.252;2022-10-16T12:41:05;31.10;39.20
70734;DHT22;58320;48.804;9.252;2022-10-16T12:43:41;30.70;38.50
70734;DHT22;58320;48.804;9.252;2022-10-16T12:48:35;30.20;39.60
70734;DHT22;58320;48.804;9.252;2022-10-16T12:51:35;29.50;40.70
70734;DHT22;58320;48.804;9.252;2022-10-16T12:57:32;27.80;42.60
70734;DHT22;58320;48.804;9.252;2022-10-16T13:12:16;25.80;47.00
70734;DHT22;58320;48.804;9.252;2022-10-16T13:17:25;25.30;48.20
70734;DHT22;58320;48.804;9.252;2022-10-16T13:20:21;25.20;48.70
70734;DHT22;58320;48.804;9.252;2022-10-16T13:26:14;25.90;47.90
70734;DHT22;58320;48.804;9.252;2022-10-16T13:28:40;26.30;47.80
70734;DHT22;58320;48.804;9.252;2022-10-16T13:31:20;26.60;47.90
70734;DHT22;58320;48.804;9.252;2022-10-16T13:33:51;26.70;48.00
70734;DHT22;58320;48.804;9.252;2022-10-16T13:36:26;26.90;48.10
70734;DHT22;58320;48.804;9.252;2022-10-16T13:39:11;27.00;47.60
70734;DHT22;58320;48.804;9.252;2022-10-16T13:41:45;27.00;47.60
70734;DHT22;58320;48.804;9.252;2022-10-16T13:44:17;27.00;47.60
70734;DHT22;58320;48.804;9.252;2022-10-16T13:46:45;27.00;47.60
70734;DHT22;58320;48.804;9.252;2022-10-16T13:49:16;27.10;47.60
70734;DHT22;58320;48.804;9.252;2022-10-16T13:51:54;27.10;47.30
70734;DHT22;58320;48.804;9.252;2022-10-16T13:54:22;27.10;46.20
70734;DHT22;58320;48.804;9.252;2022-10-16T13:56:48;27.10;46.00
70734;DHT22;58320;48.804;9.252;2022-10-16T13:59:33;27.00;46.00
70734;DHT22;58320;48.804;9.252;2022-10-16T14:02:00;27.00;46.60
70734;DHT22;58320;48.804;9.252;2022-10-16T14:04:38;26.90;46.50
70734;DHT22;58320;48.804;9.252;2022-10-16T14:07:05;26.70;47.60
70734;DHT22;58320;48.804;9.252;2022-10-16T14:09:31;26.40;48.00
70734;DHT22;58320;48.804;9.252;2022-10-16T14:12:01;25.90;49.60
70734;DHT22;58320;48.804;9.252;2022-10-16T14:14:35;25.50;50.50
70734;DHT22;58320;48.804;9.252;2022-10-16T14:17:29;25.20;51.40
70734;DHT22;58320;48.804;9.252;2022-10-16T14:19:59;25.00;52.10
70734;DHT22;58320;48.804;9.252;2022-10-16T14:22:40;24.90;52.60
70734;DHT22;58320;48.804;9.252;2022-10-16T14:27:45;24.70;53.00
70734;DHT22;58320;48.804;9.252;2022-10-16T14:30:22;24.70;53.20
70734;DHT22;58320;48.804;9.252;2022-10-16T14:33:05;24.60;53.40
70734;DHT22;58320;48.804;9.252;2022-10-16T14:35:44;24.60;53.50
70734;DHT22;58320;48.804;9.252;2022-10-16T14:38:20;24.60;53.90
70734;DHT22;58320;48.804;9.252;2022-10-16T14:40:48;24.50;54.30
70734;DHT22;58320;48.804;9.252;2022-10-16T14:43:21;24.50;54.50
70734;DHT22;58320;48.804;9.252;2022-10-16T14:45:56;24.50;54.50
70734;DHT22;58320;48.804;9.252;2022-10-16T14:48:22;24.40;54.70
70734;DHT22;58320;48.804;9.252;2022-10-16T14:50:49;24.30;55.00
70734;DHT22;58320;48.804;9.252;2022-10-16T14:53:15;24.30;55.50
70734;DHT22;58320;48.804;9.252;2022-10-16T14:55:42;24.30;55.40
70734;DHT22;58320;48.804;9.252;2022-10-16T14:58:28;24.50;56.00
70734;DHT22;58320;48.804;9.252;2022-10-16T15:00:55;24.60;55.50
70734;DHT22;58320;48.804;9.252;2022-10-16T15:03:21;24.80;55.90
70734;DHT22;58320;48.804;9.252;2022-10-16T15:05:47;24.80;55.90
70734;DHT22;58320;48.804;9.252;2022-10-16T15:08:13;24.70;56.10
70734;DHT22;58320;48.804;9.252;2022-10-16T15:10:42;24.60;56.00
70734;DHT22;58320;48.804;9.252;2022-10-16T15:13:12;24.70;56.00
70734;DHT22;58320;48.804;9.252;2022-10-16T15:15:44;25.00;55.60
70734;DHT22;58320;48.804;9.252;2022-10-16T15:18:10;25.10;55.40
70734;DHT22;58320;48.804;9.252;2022-10-16T15:20:38;25.20;55.50
70734;DHT22;58320;48.804;9.252;2022-10-16T15:23:26;25.30;55.00
70734;DHT22;58320;48.804;9.252;2022-10-16T15:25:53;25.30;54.60
70734;DHT22;58320;48.804;9.252;2022-10-16T15:28:21;25.50;54.70
70734;DHT22;58320;48.804;9.252;2022-10-16T15:30:50;25.60;54.00
70734;DHT22;58320;48.804;9.252;2022-10-16T15:33:19;25.60;54.00
70734;DHT22;58320;48.804;9.252;2022-10-16T15:35:49;25.50;54.10
70734;DHT22;58320;48.804;9.252;2022-10-16T15:38:17;25.30;54.10
70734;DHT22;58320;48.804;9.252;2022-10-16T15:40:45;25.00;54.70
70734;DHT22;58320;48.804;9.252;2022-10-16T15:43:11;24.70;55.60
70734;DHT22;58320;48.804;9.252;2022-10-16T15:45:37;24.30;56.50
70734;DHT22;58320;48.804;9.252;2022-10-16T15:48:03;24.00;57.40
70734;DHT22;58320;48.804;9.252;2022-10-16T15:50:30;23.70;58.50
70734;DHT22;58320;48.804;9.252;2022-10-16T15:52:57;23.40;59.30
70734;DHT22;58320;48.804;9.252;2022-10-16T15:55:22;23.20;59.90
70734;DHT22;58320;48.804;9.252;2022-10-16T15:57:48;23.10;60.50
70734;DHT22;58320;48.804;9.252;2022-10-16T16:00:17;22.90;61.10
70734;DHT22;58320;48.804;9.252;2022-10-16T16:02:53;22.80;61.40
70734;DHT22;58320;48.804;9.252;2022-10-16T16:05:21;22.70;61.80
70734;DHT22;58320;48.804;9.252;2022-10-16T16:07:49;22.60;62.00
70734;DHT22;58320;48.804;9.252;2022-10-16T16:10:15;22.50;62.50
70734;DHT22;58320;48.804;9.252;2022-10-16T16:12:42;22.40;62.80
70734;DHT22;58320;48.804;9.252;2022-10-16T16:15:09;22.20;62.00
70734;DHT22;58320;48.804;9.252;2022-10-16T16:17:36;22.00;61.30
70734;DHT22;58320;48.804;9.252;2022-10-16T16:20:03;21.80;61.90
70734;DHT22;58320;48.804;9.252;2022-10-16T16:22:30;21.60;62.50
70734;DHT22;58320;48.804;9.252;2022-10-16T16:24:56;21.40;63.00
70734;DHT22;58320;48.804;9.252;2022-10-16T16:27:21;21.20;63.00
70734;DHT22;58320;48.804;9.252;2022-10-16T16:29:49;20.90;63.40
70734;DHT22;58320;48.804;9.252;2022-10-16T16:32:15;20.80;63.50
70734;DHT22;58320;48.804;9.252;2022-10-16T16:34:41;20.60;63.50
70734;DHT22;58320;48.804;9.252;2022-10-16T16:37:07;20.40;63.90
70734;DHT22;58320;48.804;9.252;2022-10-16T16:39:33;20.20;64.30
70734;DHT22;58320;48.804;9.252;2022-10-16T16:41:59;20.10;64.50
70734;DHT22;58320;48.804;9.252;2022-10-16T16:44:25;20.00;65.50
70734;DHT22;58320;48.804;9.252;2022-10-16T16:46:51;19.90;66.50
70734;DHT22;58320;48.804;9.252;2022-10-16T16:49:17;19.70;67.40
70734;DHT22;58320;48.804;9.252;2022-10-16T16:51:43;19.70;67.50
70734;DHT22;58320;48.804;9.252;2022-10-16T16:54:10;19.60;68.00
70734;DHT22;58320;48.804;9.252;2022-10-16T16:56:38;19.50;68.10
70734;DHT22;58320;48.804;9.252;2022-10-16T16:59:04;19.40;68.00
70734;DHT22;58320;48.804;9.252;2022-10-16T17:01:30;19.40;67.90
70734;DHT22;58320;48.804;9.252;2022-10-16T17:03:57;19.30;68.20
70734;DHT22;58320;48.804;9.252;2022-10-16T17:06:26;19.30;68.30
70734;DHT22;58320;48.804;9.252;2022-10-16T17:08:55;19.20;68.70
70734;DHT22;58320;48.804;9.252;2022-10-16T17:11:24;19.10;69.00
70734;DHT22;58320;48.804;9.252;2022-10-16T17:13:52;19.10;69.20
70734;DHT22;58320;48.804;9.252;2022-10-16T17:16:20;19.00;69.80
70734;DHT22;58320;48.804;9.252;2022-10-16T17:18:47;18.90;69.90
70734;DHT22;58320;48.804;9.252;2022-10-16T17:21:13;18.90;70.40
70734;DHT22;58320;48.804;9.252;2022-10-16T17:23:39;18.80;70.20
70734;DHT22;58320;48.804;9.252;2022-10-16T17:26:14;18.80;70.30
70734;DHT22;58320;48.804;9.252;2022-10-16T17:28:41;18.70;70.80
70734;DHT22;58320;48.804;9.252;2022-10-16T17:33:33;18.60;71.80
70734;DHT22;58320;48.804;9.252;2022-10-16T17:35:59;-50.00;1.00
70734;DHT22;58320;48.804;9.252;2022-10-16T17:38:25;18.60;72.10
70734;DHT22;58320;48.804;9.252;2022-10-16T17:40:51;18.50;72.40
70734;DHT22;58320;48.804;9.252;2022-10-16T17:43:17;18.40;73.40
70734;DHT22;58320;48.804;9.252;2022-10-16T17:45:43;18.30;74.30
70734;DHT22;58320;48.804;9.252;2022-10-16T17:48:08;18.20;74.70
70734;DHT22;58320;48.804;9.252;2022-10-16T17:50:39;18.10;75.30
70734;DHT22;58320;48.804;9.252;2022-10-16T17:53:05;18.00;76.60